Mauston, WI (53948)

6:50 AM CDT on July 24, 2016 (GMT -0500)
Juneau County Weather | | Change Station

Elev 873 ft 43.80 °N, 90.07 °W | Updated 39 seconds ago

Scattered Clouds
Scattered Clouds
74.5 °F
Feels Like 71 °F
N
4.9
Wind Variable Wind from SSW
Gusts 7.2 mph

Today
High -- | Low -- °F
--% Chance of Precip.
Yesterday
High -- | Low -- °F
Precip. -- in
Pressure 29.80 in
Visibility 10.0 miles
Clouds Scattered Clouds 1200 ft
Heat Index 71 °F
Dew Point 74 °F
Humidity 100%
Rainfall 0.12 in
Snow Depth Not available.
5:41 AM 8:31 PM
Waning Gibbous, 77% visible
SPECI KVOK 241108Z AUTO 18005KT 10SM SCT012 23/23 A2980 RMK AO2
Pressure 29.80 in
Visibility 10.0 miles
Clouds Scattered Clouds 1200 ft
Heat Index 71 °F
Dew Point 74 °F
Humidity 100%
Rainfall 0.12 in
Snow Depth Not available.
5:41 AM 8:31 PM
Waning Gibbous, 77% visible
SPECI KVOK 241108Z AUTO 18005KT 10SM SCT012 23/23 A2980 RMK AO2

10-Day Weather Forecast

Almanac

Astronomy

Jul. 24, 2016 Rise Set
Actual Time
Civil Twilight
Nautical Twilight
Astronomical Twilight
Moon
Length of Visible Light
Length of Day
Tomorrow will be .
, % of the Moon is Illuminated

Today's Extremes

State Highs State Lows

Community

WunderPhotos

Upload Photos

1,927,049 photos uploaded!

WunderBlog® & News

Nearby

Air Quality

  Air Quality AQ Index Pollutant
Not available.

Snow Depth

Station Depth Elevation

Earthquake Activity

City Distance Mag. Time & Date
Minimum magnitude displayed is 2.5.

Coastal Water Temperatures

Place Temperature

Stations

Nearby Weather Stations

Station Location Temp. Windchill Dew Point Humidity Wind Precip. Elev Updated Type
                   

Watches & Warnings

There are currently no watches in effect.